Comanche, TX

6:34 AM CST on December 08, 2016 (GMT -0600)
Comanche

Weather History for KMKN - March, 2013

Change the Weather History Date:

Monday, March 11, 2013

  Actual Average (KSEP) Record (KSEP)
Temperature  
Mean Temperature 49 °F -  
Max Temperature 66 °F 69 °F 90 °F (1955)
Min Temperature 32 °F 45 °F 9 °F (1948)
Degree Days  
Heating Degree Days 16    
Moisture  
Dew Point 21 °F    
Average Humidity 40    
Maximum Humidity 64    
Minimum Humidity 15    
Precipitation  
Precipitation 0.00 in - - ()
Sea Level Pressure  
Sea Level Pressure 30.08 in    
Wind  
Wind Speed 7 mph (WNW)    
Max Wind Speed 13 mph    
Max Gust Speed 17 mph    
Visibility 10 miles    
Events      
Averages and records for this station are not official NWS values.
T = Trace of Precipitation, MM = Missing Value Source: NWS Daily Summary

Daily Weather History Graph

Daily Weather History Graph

Search for Another Location

Airport or City:

Trip Planner

Search our weather history database for the weather conditions in past years. The results will help you decide how hot, cold, wet, or windy it might be!

Date:

Astronomy

Mar. 11, 2013 Rise Set
Actual Time 7:49 AM CDT 7:39 PM CDT
Civil Twilight 7:24 AM CDT 8:04 PM CDT
Nautical Twilight 6:56 AM CDT 8:32 PM CDT
Astronomical Twilight 6:28 AM CDT 9:00 PM CDT
Moon 7:25 AM CDT (3/11) 7:49 PM CDT (3/11)
Length of Visible Light 12h 39m
Length of Day
11h 50m
Waning Crescent, 0% of the Moon is Illuminated
Mar 11
Waning Crescent
Mar 11
New
Mar 19
First Quarter
Mar 27
Full
Apr 2
Last Quarter

Hourly Weather History & Observations

Time (CDT) Temp. Windchill Dew Point Humidity Pressure Visibility Wind Dir Wind Speed Gust Speed Precip Events Conditions
12:15 AM 39.2 °F 34.2 °F 24.8 °F 56% 30.09 in 10.0 mi NW 6.9 mph - N/A   Clear
12:35 AM 37.4 °F 32.1 °F 23.0 °F 56% 30.09 in 10.0 mi NW 6.9 mph - N/A   Clear
12:55 AM 37.4 °F 32.8 °F 23.0 °F 56% 30.10 in 10.0 mi WNW 5.8 mph - N/A   Clear
1:15 AM 37.4 °F 32.1 °F 23.0 °F 56% 30.10 in 10.0 mi WNW 6.9 mph - N/A   Clear
1:35 AM 37.4 °F 31.4 °F 23.0 °F 56% 30.12 in 10.0 mi WNW 8.1 mph - N/A   Clear
1:55 AM 37.4 °F 32.1 °F 23.0 °F 56% 30.13 in 10.0 mi West 6.9 mph - N/A   Clear
2:15 AM 37.4 °F 32.1 °F 23.0 °F 56% 30.13 in 10.0 mi WNW 6.9 mph - N/A   Clear
2:35 AM 37.4 °F 32.8 °F 23.0 °F 56% 30.13 in 10.0 mi WNW 5.8 mph - N/A   Clear
2:55 AM 35.6 °F 30.7 °F 23.0 °F 60% 30.14 in 10.0 mi WNW 5.8 mph - N/A   Clear
3:35 AM 35.6 °F 29.9 °F 21.2 °F 56% 30.12 in 10.0 mi WNW 6.9 mph - N/A   Clear
3:55 AM 33.8 °F 28.6 °F 21.2 °F 60% 30.12 in 10.0 mi WNW 5.8 mph - N/A   Clear
4:15 AM 33.8 °F 28.6 °F 21.2 °F 60% 30.12 in 10.0 mi West 5.8 mph - N/A   Clear
4:35 AM 33.8 °F 27.7 °F 21.2 °F 60% 30.11 in 10.0 mi West 6.9 mph - N/A   Clear
4:55 AM 33.8 °F 27.7 °F 21.2 °F 60% 30.11 in 10.0 mi WNW 6.9 mph - N/A   Clear
5:15 AM 33.8 °F 28.6 °F 21.2 °F 60% 30.11 in 10.0 mi WNW 5.8 mph - N/A   Clear
5:35 AM 33.8 °F 27.0 °F 21.2 °F 60% 30.11 in 10.0 mi WNW 8.1 mph - N/A   Clear
5:55 AM 32.0 °F 25.6 °F 21.2 °F 64% 30.11 in 10.0 mi WNW 6.9 mph - N/A   Clear
6:15 AM 32.0 °F 25.6 °F 21.2 °F 64% 30.12 in 10.0 mi WNW 6.9 mph - N/A   Clear
6:55 AM 32.0 °F 25.6 °F 21.2 °F 64% 30.12 in 10.0 mi WNW 6.9 mph - N/A   Clear
7:15 AM 32.0 °F 25.6 °F 21.2 °F 64% 30.13 in 10.0 mi NW 6.9 mph - N/A   Clear
7:35 AM 32.0 °F 26.4 °F 19.4 °F 60% 30.14 in 10.0 mi WNW 5.8 mph - N/A   Clear
7:55 AM 32.0 °F 26.4 °F 19.4 °F 60% 30.14 in 10.0 mi WNW 5.8 mph - N/A   Clear
8:15 AM 32.0 °F 26.4 °F 19.4 °F 60% 30.14 in 10.0 mi West 5.8 mph - N/A   Clear
8:35 AM 33.8 °F 27.7 °F 19.4 °F 56% 30.14 in 10.0 mi WNW 6.9 mph - N/A   Clear
8:55 AM 35.6 °F 30.7 °F 19.4 °F 52% 30.15 in 10.0 mi WNW 5.8 mph - N/A   Clear
9:15 AM 35.6 °F 29.2 °F 19.4 °F 52% 30.15 in 10.0 mi NW 8.1 mph - N/A   Clear
9:35 AM 37.4 °F 31.4 °F 19.4 °F 48% 30.16 in 10.0 mi NW 8.1 mph - N/A   Clear
9:55 AM 41.0 °F 34.7 °F 21.2 °F 45% 30.16 in 10.0 mi NW 10.4 mph - N/A   Clear
10:15 AM 41.0 °F 35.8 °F 17.6 °F 39% 30.16 in 10.0 mi NW 8.1 mph - N/A   Clear
10:35 AM 42.8 °F 37.5 °F 17.6 °F 36% 30.16 in 10.0 mi NW 9.2 mph - N/A   Clear
10:55 AM 44.6 °F 39.7 °F 19.4 °F 37% 30.15 in 10.0 mi WNW 9.2 mph - N/A   Clear
11:15 AM 44.6 °F 38.8 °F 19.4 °F 37% 30.15 in 10.0 mi NW 11.5 mph - N/A   Clear
11:35 AM 46.4 °F 42.4 °F 19.4 °F 34% 30.15 in 10.0 mi NW 8.1 mph - N/A   Clear
11:55 AM 48.2 °F - 19.4 °F 32% 30.15 in 10.0 mi NW 6.9 mph - N/A   Clear
12:15 PM 50.0 °F - 17.6 °F 28% 30.14 in 10.0 mi NW 10.4 mph - N/A   Clear
12:35 PM 51.8 °F - 19.4 °F 28% 30.14 in 10.0 mi NNW 9.2 mph - N/A   Clear
12:55 PM 53.6 °F - 17.6 °F 24% 30.13 in 10.0 mi NNW 10.4 mph 16.1 mph N/A   Clear
1:15 PM 53.6 °F - 17.6 °F 24% 30.12 in 10.0 mi NW 9.2 mph 17.3 mph N/A   Clear
1:35 PM 55.4 °F - 17.6 °F 23% 30.12 in 10.0 mi NW 10.4 mph - N/A   Clear
1:55 PM 57.2 °F - 17.6 °F 21% 30.10 in 10.0 mi NW 8.1 mph - N/A   Clear
2:15 PM 59.0 °F - 17.6 °F 20% 30.09 in 10.0 mi NNW 10.4 mph - N/A   Clear
2:35 PM 59.0 °F - 15.8 °F 19% 30.07 in 10.0 mi NNW 5.8 mph - N/A   Clear
2:55 PM 60.8 °F - 17.6 °F 19% 30.06 in 10.0 mi North 6.9 mph - N/A   Clear
3:15 PM 60.8 °F - 17.6 °F 19% 30.05 in 10.0 mi NW 8.1 mph - N/A   Clear
3:35 PM 62.6 °F - 17.6 °F 18% 30.04 in 10.0 mi WNW 6.9 mph - N/A   Clear
3:55 PM 62.6 °F - 17.6 °F 18% 30.02 in 10.0 mi West 3.5 mph - N/A   Clear
4:15 PM 62.6 °F - 17.6 °F 18% 30.02 in 10.0 mi Calm Calm - N/A   Clear
4:35 PM 64.4 °F - 17.6 °F 16% 30.00 in 10.0 mi Calm Calm - N/A   Clear
4:55 PM 64.4 °F - 17.6 °F 16% 30.00 in 10.0 mi WNW 3.5 mph - N/A   Clear
5:15 PM 66.2 °F - 19.4 °F 17% 30.00 in 10.0 mi North 12.7 mph 17.3 mph N/A   Clear
5:35 PM 66.2 °F - 19.4 °F 17% 29.99 in 10.0 mi West 8.1 mph - N/A   Clear
5:55 PM 66.2 °F - 17.6 °F 15% 29.99 in 10.0 mi NW 6.9 mph - N/A   Clear
6:15 PM 66.2 °F - 19.4 °F 17% 29.99 in 10.0 mi West 6.9 mph - N/A   Clear
6:35 PM 66.2 °F - 19.4 °F 17% 29.99 in 10.0 mi North 5.8 mph - N/A   Clear
6:55 PM 64.4 °F - 26.6 °F 24% 29.99 in 10.0 mi NNE 4.6 mph - N/A   Clear
7:15 PM 62.6 °F - 23.0 °F 22% 29.98 in 10.0 mi ENE 3.5 mph - N/A   Clear
7:35 PM 62.6 °F - 23.0 °F 22% 29.98 in 10.0 mi ESE 3.5 mph - N/A   Clear
7:55 PM 59.0 °F - 24.8 °F 27% 29.99 in 10.0 mi SE 8.1 mph - N/A   Clear
8:15 PM 55.4 °F - 26.6 °F 33% 30.00 in 10.0 mi SE 6.9 mph - N/A   Clear
8:35 PM 55.4 °F - 26.6 °F 33% 30.00 in 10.0 mi SE 5.8 mph - N/A   Clear
8:55 PM 53.6 °F - 26.6 °F 35% 30.01 in 10.0 mi South 4.6 mph - N/A   Clear
9:15 PM 53.6 °F - 24.8 °F 33% 30.01 in 10.0 mi SSE 4.6 mph - N/A   Clear
9:35 PM 53.6 °F - 24.8 °F 33% 30.02 in 10.0 mi SSE 5.8 mph - N/A   Clear
9:55 PM 51.8 °F - 26.6 °F 38% 30.02 in 10.0 mi SSE 4.6 mph - N/A   Clear
10:15 PM 51.8 °F - 26.6 °F 38% 30.03 in 10.0 mi SSE 6.9 mph - N/A   Clear
10:35 PM 50.0 °F - 26.6 °F 40% 30.03 in 10.0 mi South 4.6 mph - N/A   Clear
10:55 PM 50.0 °F - 26.6 °F 40% 30.03 in 10.0 mi SSE 5.8 mph - N/A   Clear
11:15 PM 50.0 °F - 26.6 °F 40% 30.03 in 10.0 mi SSE 5.8 mph - N/A   Clear
11:35 PM 48.2 °F - 26.6 °F 43% 30.03 in 10.0 mi SE 5.8 mph - N/A   Clear
11:55 PM 46.4 °F 43.5 °F 28.4 °F 50% 30.03 in 10.0 mi SSE 5.8 mph - N/A   Clear